Terminal Aerodrome Forecast
Issued by NWS Chicago, IL

Home | Current Version | Previous Version | Graphics & Text | Print | Product List | Glossary On
Versions: 1 2 3 4 5 6 7 8 9 10 11 12 13 14 15 16 17 18 19 20 21 22 23 24 25 26 27 28 29 30 31 32 33 34 35
000
FTUS43 KLOT 251400 AAA
TAFRFD
TAF AMD
KRFD 251400Z 2514/2612 05019G28KT 3SM -SN OVC012
      TEMPO 2514/2517 1SM -SN BR OVC009
     FM251700 04018G27KT P6SM -SHSN OVC012
     FM251900 03017G26KT P6SM OVC020
     FM260100 02012KT P6SM SCT020
     FM260800 32004KT P6SM FEW020 BKN150=

USA.gov is the U.S. government's official web portal to all federal, state and local government web resources and services.